Time;durP1;ratioP1;P1;durP2;ratioP2;P2;SDS_P1;SDS_P2;PMS_P1;PMS_P2;Temp;Humidity;BMP_temperature;BMP_pressure;BME280_temperature;BME280_humidity;BME280_pressure;Samples;Min_cycle;Max_cycle;Signal;HPM_P1;HPM_P2
2022/09/26 00:01:20;;;;;;;14.70;12.60;;;12.50;99.90;;;;;;5054199;28;20674;-72
2022/09/26 00:03:49;;;;;;;17.87;12.43;;;12.40;99.90;;;;;;5052408;28;20288;-72
2022/09/26 00:06:17;;;;;;;16.37;12.57;;;12.40;99.90;;;;;;5053786;28;20277;-72
2022/09/26 00:08:45;;;;;;;15.23;12.27;;;12.40;99.90;;;;;;5051586;28;20689;-72
2022/09/26 00:11:14;;;;;;;15.07;12.53;;;12.40;99.90;;;;;;5051799;28;20220;-71
2022/09/26 00:13:42;;;;;;;16.37;13.23;;;12.40;99.90;;;;;;5052381;28;20225;-71
2022/09/26 00:16:11;;;;;;;16.23;12.70;;;12.40;99.90;;;;;;5052901;28;20233;-72
2022/09/26 00:18:38;;;;;;;16.13;12.33;;;12.40;99.90;;;;;;5052560;28;20698;-71
2022/09/26 00:21:06;;;;;;;20.23;12.80;;;12.40;99.90;;;;;;5051581;28;20218;-73
2022/09/26 00:23:32;;;;;;;18.10;12.60;;;12.40;99.90;;;;;;5053036;28;20272;-72
2022/09/26 00:26:00;;;;;;;16.67;13.27;;;12.40;99.90;;;;;;5053310;28;20223;-71
2022/09/26 00:28:27;;;;;;;21.80;13.37;;;12.40;99.90;;;;;;5053959;28;20210;-71
2022/09/26 00:30:56;;;;;;;17.33;13.17;;;12.30;99.90;;;;;;5050059;28;20218;-71
2022/09/26 00:33:23;;;;;;;15.67;12.93;;;12.30;99.90;;;;;;5051618;28;20616;-71
2022/09/26 00:35:51;;;;;;;17.20;13.63;;;12.30;99.90;;;;;;5052018;28;20240;-71
2022/09/26 00:38:18;;;;;;;15.63;12.37;;;12.30;99.90;;;;;;5052318;28;20214;-72
2022/09/26 00:40:45;;;;;;;15.07;12.07;;;12.30;99.90;;;;;;5052457;28;20230;-72
2022/09/26 00:43:27;;;;;;;18.37;13.70;;;12.30;99.90;;;;;;5053529;28;20214;-73
2022/09/26 00:45:58;;;;;;;15.27;12.20;;;12.20;99.90;;;;;;5053443;28;20213;-73
2022/09/26 00:48:25;;;;;;;18.37;13.13;;;12.20;99.90;;;;;;5052622;28;20214;-73
2022/09/26 00:50:52;;;;;;;17.50;12.90;;;12.20;99.90;;;;;;5048651;28;20261;-72
2022/09/26 00:53:23;;;;;;;16.67;13.33;;;12.20;99.90;;;;;;5052422;28;20585;-72
2022/09/26 00:55:55;;;;;;;17.47;12.67;;;12.10;99.90;;;;;;5052881;28;20217;-72
2022/09/26 00:58:26;;;;;;;13.90;11.90;;;12.20;99.90;;;;;;5052573;28;20198;-73
2022/09/26 01:00:55;;;;;;;19.77;13.53;;;12.10;99.90;;;;;;5053122;28;20218;-73
2022/09/26 01:03:23;;;;;;;15.00;12.20;;;12.10;99.90;;;;;;5046189;28;20210;-72
2022/09/26 01:05:51;;;;;;;17.57;13.33;;;12.10;99.90;;;;;;5045046;28;20205;-72
2022/09/26 01:08:21;;;;;;;18.87;13.60;;;12.10;99.90;;;;;;5050541;28;20200;-72
2022/09/26 01:10:49;;;;;;;16.43;12.93;;;12.10;99.90;;;;;;5051121;28;20209;-71
2022/09/26 01:13:16;;;;;;;18.77;12.50;;;12.10;99.90;;;;;;5052084;28;20213;-71
2022/09/26 01:15:43;;;;;;;19.50;14.03;;;12.00;99.90;;;;;;5050298;28;20205;-72
2022/09/26 01:18:12;;;;;;;16.17;12.90;;;12.00;99.90;;;;;;5052322;28;20643;-72
2022/09/26 01:20:50;;;;;;;17.53;13.63;;;12.00;99.90;;;;;;5065175;28;20218;-72
2022/09/26 01:23:58;;;;;;;16.60;12.23;;;12.00;99.90;;;;;;5049285;28;20246;-72
2022/09/26 01:26:58;;;;;;;15.70;13.70;;;12.00;99.90;;;;;;5041771;28;20209;-71
2022/09/26 01:30:00;;;;;;;16.90;13.83;;;12.00;99.90;;;;;;5047677;28;20206;-71
2022/09/26 01:32:49;;;;;;;16.23;13.20;;;12.00;99.90;;;;;;5049798;28;20194;-73
2022/09/26 01:35:27;;;;;;;18.77;13.63;;;11.90;99.90;;;;;;5052004;28;20621;-72
2022/09/26 01:38:03;;;;;;;18.63;13.10;;;12.00;99.90;;;;;;5050170;28;20564;-72
2022/09/26 01:40:36;;;;;;;16.83;12.77;;;11.90;99.90;;;;;;5050950;28;20230;-73
2022/09/26 01:43:15;;;;;;;17.33;13.33;;;12.00;99.90;;;;;;5052028;28;20217;-72
2022/09/26 01:45:50;;;;;;;16.23;13.40;;;11.90;99.90;;;;;;5051242;28;20225;-72
2022/09/26 01:48:24;;;;;;;20.87;14.33;;;12.00;99.90;;;;;;5052517;28;20935;-72
2022/09/26 01:50:55;;;;;;;16.37;13.10;;;12.00;99.90;;;;;;5051355;28;20201;-73
2022/09/26 01:53:27;;;;;;;14.83;13.23;;;12.00;99.90;;;;;;5051277;28;20206;-73
2022/09/26 01:55:59;;;;;;;15.60;13.83;;;12.00;99.90;;;;;;5051282;28;20212;-73
2022/09/26 01:58:29;;;;;;;19.03;14.00;;;12.00;99.90;;;;;;5048866;28;20202;-73
2022/09/26 02:00:59;;;;;;;17.53;13.50;;;12.00;99.90;;;;;;5051424;28;20233;-73
2022/09/26 02:03:31;;;;;;;18.33;14.37;;;12.00;99.90;;;;;;5050094;28;20202;-73
2022/09/26 02:06:02;;;;;;;20.87;14.37;;;12.00;99.90;;;;;;5051087;28;20217;-72
2022/09/26 02:08:36;;;;;;;19.13;13.20;;;11.90;99.90;;;;;;5042225;28;20205;-72
2022/09/26 02:11:06;;;;;;;18.43;13.57;;;12.00;99.90;;;;;;5051230;28;20210;-73
2022/09/26 02:13:37;;;;;;;16.10;13.77;;;12.00;99.90;;;;;;5050725;28;20565;-72
2022/09/26 02:16:08;;;;;;;17.33;13.83;;;12.00;99.90;;;;;;5050622;28;20236;-72
2022/09/26 02:18:40;;;;;;;19.57;14.00;;;11.90;99.90;;;;;;5049875;28;20206;-72
2022/09/26 02:21:12;;;;;;;18.93;15.00;;;11.90;99.90;;;;;;5063119;28;20198;-72
2022/09/26 02:23:39;;;;;;;16.97;14.03;;;11.90;99.90;;;;;;5051281;28;20242;-72
2022/09/26 02:26:06;;;;;;;19.07;14.27;;;11.90;99.90;;;;;;5050870;28;20213;-72
2022/09/26 02:28:33;;;;;;;18.70;14.73;;;11.90;99.90;;;;;;5049940;28;20202;-71
2022/09/26 02:31:02;;;;;;;19.60;14.90;;;11.90;99.90;;;;;;5050411;28;20744;-73
2022/09/26 02:33:30;;;;;;;17.77;13.70;;;11.90;99.90;;;;;;5050714;28;20593;-73
2022/09/26 02:35:58;;;;;;;19.67;15.03;;;11.90;99.90;;;;;;5048772;28;20218;-73
2022/09/26 02:38:27;;;;;;;18.37;15.47;;;11.80;99.90;;;;;;5049591;28;20610;-73
2022/09/26 02:41:00;;;;;;;17.73;15.23;;;11.80;99.90;;;;;;5050917;28;20658;-72
2022/09/26 02:43:44;;;;;;;20.57;15.50;;;11.90;99.90;;;;;;5041297;28;20198;-74
2022/09/26 02:46:27;;;;;;;18.40;14.97;;;11.90;99.90;;;;;;5050271;28;20659;-74
2022/09/26 02:49:06;;;;;;;19.37;15.93;;;11.90;99.90;;;;;;5050025;28;20221;-72
2022/09/26 02:51:48;;;;;;;20.73;15.30;;;11.90;99.90;;;;;;5046218;28;20209;-72
2022/09/26 02:54:22;;;;;;;21.07;16.13;;;11.90;99.90;;;;;;5042545;28;20255;-72
2022/09/26 02:57:03;;;;;;;19.40;15.80;;;11.90;99.90;;;;;;5048726;28;20204;-72
2022/09/26 02:59:37;;;;;;;20.00;15.33;;;11.90;99.90;;;;;;5050109;28;20201;-73
2022/09/26 03:02:12;;;;;;;20.10;15.70;;;11.90;99.90;;;;;;5051064;28;20270;-73
2022/09/26 03:04:46;;;;;;;22.30;16.50;;;11.90;99.90;;;;;;5049956;28;20212;-73
2022/09/26 03:07:18;;;;;;;20.57;15.67;;;11.90;99.90;;;;;;5061007;28;20202;-73
2022/09/26 03:09:47;;;;;;;18.93;16.07;;;11.90;99.90;;;;;;5046185;28;20221;-73
2022/09/26 03:12:15;;;;;;;18.17;15.50;;;11.90;99.90;;;;;;5059965;28;20202;-72
2022/09/26 03:14:44;;;;;;;22.20;15.57;;;11.90;99.90;;;;;;5058631;28;20221;-74
2022/09/26 03:17:11;;;;;;;18.73;15.50;;;11.80;99.90;;;;;;5054074;28;20201;-74
2022/09/26 03:19:43;;;;;;;18.80;15.40;;;11.80;99.90;;;;;;5053532;28;20209;-73
2022/09/26 03:22:10;;;;;;;20.57;16.27;;;11.80;99.90;;;;;;5054720;28;20244;-73
2022/09/26 03:24:41;;;;;;;18.07;14.90;;;11.80;99.90;;;;;;5053523;28;20570;-73
2022/09/26 03:27:10;;;;;;;20.57;15.30;;;11.70;99.90;;;;;;5053965;28;20210;-72
2022/09/26 03:29:37;;;;;;;19.27;15.33;;;11.70;99.90;;;;;;5053940;28;20249;-73
2022/09/26 03:32:04;;;;;;;17.93;14.63;;;11.60;99.90;;;;;;5053747;28;20198;-71
2022/09/26 03:34:31;;;;;;;19.27;15.70;;;11.60;99.90;;;;;;5053028;28;20206;-71
2022/09/26 03:36:58;;;;;;;19.83;15.13;;;11.60;99.90;;;;;;5046055;28;20206;-72
2022/09/26 03:39:25;;;;;;;21.93;16.20;;;11.60;99.90;;;;;;5053617;28;20206;-72
2022/09/26 03:41:55;;;;;;;20.33;15.20;;;11.60;99.90;;;;;;5053034;28;20233;-72
2022/09/26 03:44:23;;;;;;;20.50;14.50;;;11.50;99.90;;;;;;5053327;28;20556;-73
2022/09/26 03:46:49;;;;;;;20.03;15.53;;;11.50;99.90;;;;;;5052758;28;20210;-71
2022/09/26 03:49:16;;;;;;;22.30;15.07;;;11.40;99.90;;;;;;5055701;28;20420;-73
2022/09/26 03:51:43;;;;;;;19.67;14.67;;;11.40;99.90;;;;;;5066342;28;20202;-72
2022/09/26 03:54:11;;;;;;;18.73;15.37;;;11.40;99.90;;;;;;5054873;28;20237;-72
2022/09/26 03:56:38;;;;;;;18.70;15.13;;;11.40;99.90;;;;;;5052626;28;20198;-72
2022/09/26 03:59:06;;;;;;;21.60;15.73;;;11.30;99.90;;;;;;5054196;28;20678;-72
2022/09/26 04:01:33;;;;;;;19.10;15.97;;;11.30;99.90;;;;;;5053607;28;20218;-72
2022/09/26 04:04:00;;;;;;;19.67;15.50;;;11.20;99.90;;;;;;5053593;28;20651;-72
2022/09/26 04:06:27;;;;;;;19.07;14.50;;;11.20;99.90;;;;;;5053117;28;20670;-73
2022/09/26 04:08:53;;;;;;;19.43;14.03;;;11.20;99.90;;;;;;5052669;28;20210;-72
2022/09/26 04:11:23;;;;;;;19.53;15.10;;;11.20;99.90;;;;;;5054316;28;20206;-72
2022/09/26 04:13:51;;;;;;;19.07;14.33;;;11.20;99.90;;;;;;5052186;28;20296;-73
2022/09/26 04:16:19;;;;;;;20.53;14.57;;;11.20;99.90;;;;;;5052903;28;20206;-73
2022/09/26 04:18:46;;;;;;;17.10;15.00;;;11.20;99.90;;;;;;5053218;28;20565;-73
2022/09/26 04:21:14;;;;;;;18.03;14.43;;;11.10;99.90;;;;;;5054317;28;20234;-73
2022/09/26 04:23:42;;;;;;;17.90;15.30;;;11.10;99.90;;;;;;5053538;28;20241;-73
2022/09/26 04:26:11;;;;;;;21.50;15.37;;;11.10;99.90;;;;;;5050793;28;20209;-72
2022/09/26 04:28:38;;;;;;;22.50;15.67;;;11.10;99.90;;;;;;5053369;28;20210;-73
2022/09/26 04:31:06;;;;;;;19.80;15.17;;;11.10;99.90;;;;;;5051769;28;20236;-72
2022/09/26 04:33:34;;;;;;;22.17;15.33;;;11.20;99.90;;;;;;5053552;28;20212;-72
2022/09/26 04:36:04;;;;;;;21.23;15.53;;;11.10;99.90;;;;;;5050835;28;20210;-72
2022/09/26 04:38:32;;;;;;;20.27;15.30;;;11.10;99.90;;;;;;5044728;28;20218;-73
2022/09/26 04:41:03;;;;;;;21.07;15.87;;;11.10;99.90;;;;;;5052870;28;20667;-73
2022/09/26 04:43:30;;;;;;;18.93;14.83;;;11.10;99.90;;;;;;5052745;28;20596;-73
2022/09/26 04:45:57;;;;;;;21.43;15.93;;;11.10;99.90;;;;;;5044961;28;20213;-74
2022/09/26 04:48:24;;;;;;;18.27;15.07;;;11.10;99.90;;;;;;5052855;28;20241;-71
2022/09/26 04:50:52;;;;;;;22.80;15.70;;;11.10;99.90;;;;;;5066583;28;20658;-71
2022/09/26 04:53:19;;;;;;;18.57;15.07;;;11.10;99.90;;;;;;5053138;28;20721;-71
2022/09/26 04:55:46;;;;;;;20.13;15.93;;;11.10;99.90;;;;;;5050921;28;20237;-71
2022/09/26 04:58:14;;;;;;;21.83;14.83;;;11.10;99.90;;;;;;5053393;28;20218;-71
2022/09/26 05:00:46;;;;;;;21.17;14.80;;;11.10;99.90;;;;;;5051164;28;20575;-71
2022/09/26 05:03:13;;;;;;;17.53;15.33;;;11.10;99.90;;;;;;5051144;28;20210;-70
2022/09/26 05:05:40;;;;;;;22.00;15.67;;;11.10;99.90;;;;;;5051450;28;20205;-72
2022/09/26 05:08:09;;;;;;;19.87;15.57;;;11.20;99.90;;;;;;5048141;28;20201;-72
2022/09/26 05:10:36;;;;;;;24.87;15.40;;;11.20;99.90;;;;;;5054469;28;20256;-73
2022/09/26 05:13:03;;;;;;;22.17;15.97;;;11.20;99.90;;;;;;5051413;28;20213;-73
2022/09/26 05:15:30;;;;;;;18.97;15.67;;;11.30;99.90;;;;;;5051881;28;20210;-72
2022/09/26 05:17:58;;;;;;;21.40;15.47;;;11.30;99.90;;;;;;5048202;28;20632;-73
2022/09/26 05:20:28;;;;;;;20.80;15.50;;;11.30;99.90;;;;;;5062172;28;20205;-73
2022/09/26 05:22:57;;;;;;;20.00;14.80;;;11.30;99.90;;;;;;5048032;28;20331;-73
2022/09/26 05:28:10;;;;;;;20.33;15.13;;;11.30;99.90;;;;;;5051108;28;20232;-72
2022/09/26 05:30:37;;;;;;;19.87;15.33;;;11.30;99.90;;;;;;5051681;28;20206;-71
2022/09/26 05:33:04;;;;;;;22.20;15.60;;;11.30;99.90;;;;;;5050509;28;20202;-71
2022/09/26 05:35:33;;;;;;;17.47;14.20;;;11.30;99.90;;;;;;5049495;28;20579;-72
2022/09/26 05:38:00;;;;;;;18.23;14.63;;;11.30;99.90;;;;;;5041723;28;20236;-73
2022/09/26 05:43:13;;;;;;;17.87;14.67;;;11.40;99.90;;;;;;5051943;28;20225;-73
2022/09/26 05:45:40;;;;;;;23.03;14.83;;;11.40;99.90;;;;;;5051281;28;20637;-73
2022/09/26 05:48:07;;;;;;;21.87;15.27;;;11.50;99.90;;;;;;5038890;28;20206;-72
2022/09/26 05:50:34;;;;;;;20.50;14.77;;;11.60;99.90;;;;;;5055293;28;20205;-73
2022/09/26 05:53:02;;;;;;;21.60;15.23;;;11.60;99.90;;;;;;5050098;28;20217;-73
2022/09/26 05:55:30;;;;;;;26.17;15.83;;;11.70;99.90;;;;;;5052337;28;20575;-73
2022/09/26 05:57:58;;;;;;;21.43;14.77;;;11.80;99.90;;;;;;5049148;28;20194;-70
2022/09/26 06:00:25;;;;;;;21.03;15.03;;;11.90;99.90;;;;;;5048894;28;21519;-74
2022/09/26 06:02:56;;;;;;;20.70;15.47;;;12.00;99.90;;;;;;5048750;28;20300;-72
2022/09/26 06:05:23;;;;;;;26.37;15.23;;;12.00;99.90;;;;;;5046724;28;20202;-71
2022/09/26 06:07:50;;;;;;;22.20;17.60;;;12.00;99.90;;;;;;5046681;28;20463;-72
2022/09/26 06:10:17;;;;;;;21.60;16.20;;;12.00;99.90;;;;;;5049675;28;20198;-72
2022/09/26 06:12:45;;;;;;;22.60;15.43;;;12.00;99.90;;;;;;5045112;28;20419;-72
2022/09/26 06:15:13;;;;;;;22.83;15.57;;;12.00;99.90;;;;;;5048838;28;20214;-74
2022/09/26 06:17:40;;;;;;;32.27;15.57;;;12.10;99.90;;;;;;5046252;28;20213;-73
2022/09/26 06:20:08;;;;;;;18.23;15.10;;;12.10;99.90;;;;;;5044403;28;20206;-71
2022/09/26 06:22:39;;;;;;;19.60;15.77;;;12.20;99.90;;;;;;5044415;28;20710;-73
2022/09/26 06:25:07;;;;;;;21.73;14.80;;;12.30;99.90;;;;;;5046433;28;20576;-73
2022/09/26 06:27:35;;;;;;;21.20;15.70;;;12.30;99.90;;;;;;5049417;28;20616;-68
2022/09/26 06:30:03;;;;;;;21.60;15.70;;;12.30;99.90;;;;;;5051080;28;20209;-72
2022/09/26 06:32:30;;;;;;;24.17;16.17;;;12.40;99.90;;;;;;5050649;28;20214;-66
2022/09/26 06:34:57;;;;;;;24.53;15.77;;;12.50;99.90;;;;;;5049383;28;20298;-66
2022/09/26 06:37:23;;;;;;;28.97;17.43;;;12.50;99.90;;;;;;5046707;28;20221;-67
2022/09/26 06:39:50;;;;;;;23.37;15.63;;;12.50;99.90;;;;;;5048156;28;20210;-73
2022/09/26 06:42:17;;;;;;;20.20;15.67;;;12.50;99.90;;;;;;5045729;28;20694;-74
2022/09/26 06:44:43;;;;;;;19.73;15.77;;;12.60;99.90;;;;;;5051159;28;20206;-72
2022/09/26 06:47:12;;;;;;;22.20;14.83;;;12.60;99.90;;;;;;5049492;28;20221;-73
2022/09/26 06:49:39;;;;;;;20.13;14.63;;;12.70;99.90;;;;;;5046458;28;20224;-74
2022/09/26 06:52:05;;;;;;;19.77;15.30;;;12.70;99.90;;;;;;5049859;28;20199;-66
2022/09/26 06:54:32;;;;;;;19.23;14.23;;;12.80;99.90;;;;;;5044114;28;20216;-66
2022/09/26 06:56:59;;;;;;;17.30;14.47;;;12.80;99.90;;;;;;5047015;28;20225;-64
2022/09/26 06:59:26;;;;;;;20.43;14.77;;;12.80;99.90;;;;;;5048843;28;20300;-68
2022/09/26 07:01:53;;;;;;;20.03;15.03;;;12.90;99.90;;;;;;5041819;28;20552;-69
2022/09/26 07:04:26;;;;;;;21.47;14.47;;;13.00;99.90;;;;;;5044451;28;20217;-70
2022/09/26 07:06:52;;;;;;;20.07;15.20;;;13.00;99.90;;;;;;5045308;28;20643;-68
2022/09/26 07:09:19;;;;;;;22.57;14.37;;;13.10;99.90;;;;;;5039853;28;20655;-70
2022/09/26 07:11:47;;;;;;;21.47;15.03;;;13.20;99.90;;;;;;5043186;28;20283;-69
2022/09/26 07:14:15;;;;;;;21.47;14.80;;;13.30;99.90;;;;;;5044419;28;20198;-68
2022/09/26 07:16:43;;;;;;;24.47;15.73;;;13.40;99.90;;;;;;5045695;28;20233;-67
2022/09/26 07:19:11;;;;;;;22.07;15.53;;;13.60;99.90;;;;;;5055360;28;20221;-69
2022/09/26 07:21:39;;;;;;;20.77;15.27;;;13.80;99.90;;;;;;5049718;28;20221;-70
2022/09/26 07:24:06;;;;;;;23.13;15.77;;;14.00;99.90;;;;;;5049587;28;20452;-68
2022/09/26 07:26:33;;;;;;;22.43;16.27;;;14.20;99.90;;;;;;5046057;28;20212;-68
2022/09/26 07:29:00;;;;;;;20.47;15.33;;;14.40;99.90;;;;;;5048215;28;20206;-70
2022/09/26 07:31:28;;;;;;;21.60;16.63;;;14.50;99.90;;;;;;5048397;28;20228;-70
2022/09/26 07:33:55;;;;;;;22.63;17.37;;;14.70;99.90;;;;;;5048197;28;20221;-70
2022/09/26 07:36:21;;;;;;;24.67;16.17;;;14.80;99.90;;;;;;5047218;28;20210;-70
2022/09/26 07:38:50;;;;;;;21.83;16.47;;;14.90;99.90;;;;;;5049404;28;20209;-70
2022/09/26 07:41:18;;;;;;;24.40;16.37;;;15.00;99.90;;;;;;5048886;28;20702;-69
2022/09/26 07:43:44;;;;;;;22.27;16.70;;;15.20;99.90;;;;;;5049608;28;20255;-71
2022/09/26 07:51:40;;;;;;;22.37;16.43;;;15.60;99.90;;;;;;5041564;28;20197;-67
2022/09/26 07:54:08;;;;;;;19.73;16.87;;;15.70;99.90;;;;;;5047607;28;20581;-69
2022/09/26 07:56:35;;;;;;;23.10;16.60;;;15.80;99.90;;;;;;5039815;28;20202;-68
2022/09/26 07:59:04;;;;;;;21.70;16.30;;;15.80;99.90;;;;;;5044874;28;20206;-69
2022/09/26 08:01:31;;;;;;;22.60;16.73;;;15.90;99.90;;;;;;5047953;28;20202;-68
2022/09/26 08:03:58;;;;;;;22.38;17.35;;;16.10;99.90;;;;;;5049256;28;20312;-69
2022/09/26 08:06:26;;;;;;;23.57;17.73;;;16.30;99.90;;;;;;5050571;28;20221;-68
2022/09/26 08:08:53;;;;;;;25.98;18.20;;;16.50;99.90;;;;;;5051001;28;20210;-67
2022/09/26 08:11:22;;;;;;;27.83;19.30;;;16.70;99.90;;;;;;5052363;28;20217;-68
2022/09/26 08:13:49;;;;;;;30.95;18.25;;;16.90;99.90;;;;;;5051247;28;20213;-69
2022/09/26 08:16:19;;;;;;;29.60;20.52;;;17.10;99.90;;;;;;5053545;28;20651;-71
2022/09/26 08:18:46;;;;;;;24.27;18.35;;;17.30;99.90;;;;;;5055112;28;20217;-70
2022/09/26 08:21:13;;;;;;;19.80;17.63;;;17.50;99.90;;;;;;5048306;28;20209;-69
2022/09/26 08:23:40;;;;;;;20.92;16.42;;;17.70;99.90;;;;;;5053803;28;20234;-70
2022/09/26 08:26:08;;;;;;;34.70;21.95;;;17.90;99.90;;;;;;5049207;28;20660;-70
2022/09/26 08:28:37;;;;;;;25.38;18.08;;;18.10;99.90;;;;;;5050079;28;20216;-70
2022/09/26 08:31:05;;;;;;;23.42;17.75;;;18.30;99.90;;;;;;5044777;28;20211;-68
2022/09/26 08:33:34;;;;;;;21.73;17.65;;;18.40;99.90;;;;;;5050289;28;20202;-69
2022/09/26 08:36:03;;;;;;;17.23;15.35;;;18.60;99.90;;;;;;5055111;28;20245;-66
2022/09/26 08:38:30;;;;;;;19.13;16.48;;;18.80;99.90;;;;;;5053769;28;20655;-68
2022/09/26 08:41:02;;;;;;;20.55;15.85;;;19.00;99.90;;;;;;5050195;28;20202;-69
2022/09/26 08:43:41;;;;;;;17.45;14.50;;;19.00;99.90;;;;;;5048564;28;20218;-68
2022/09/26 08:49:41;;;;;;;22.17;16.25;;;19.50;99.90;;;;;;4976473;28;20219;-70
2022/09/26 08:52:22;;;;;;;20.67;14.82;;;19.80;99.90;;;;;;5039636;28;20221;-67
2022/09/26 08:54:51;;;;;;;17.50;14.57;;;20.00;99.90;;;;;;5046786;28;20209;-70
2022/09/26 08:57:28;;;;;;;17.05;13.95;;;20.20;99.90;;;;;;5038315;28;20606;-66
2022/09/26 08:59:56;;;;;;;18.35;14.63;;;20.30;99.90;;;;;;5044081;28;20220;-69
2022/09/26 09:02:31;;;;;;;18.00;14.27;;;20.60;99.90;;;;;;5040663;28;20202;-66
2022/09/26 09:05:03;;;;;;;15.75;13.93;;;21.20;99.90;;;;;;5052050;28;20228;-68
2022/09/26 09:07:31;;;;;;;19.27;14.85;;;22.80;99.90;;;;;;5037449;28;20942;-68
2022/09/26 09:10:01;;;;;;;24.05;14.75;;;25.90;99.00;;;;;;5040881;28;20577;-67
2022/09/26 09:12:41;;;;;;;19.02;13.57;;;29.00;84.00;;;;;;5038306;28;20209;-67
2022/09/26 09:15:24;;;;;;;16.10;13.02;;;31.60;64.60;;;;;;5040535;28;20631;-68
2022/09/26 09:18:02;;;;;;;14.55;12.80;;;33.80;54.80;;;;;;5045136;28;20554;-66
2022/09/26 09:20:39;;;;;;;16.70;13.75;;;35.70;49.40;;;;;;5050308;28;20208;-66
2022/09/26 09:23:23;;;;;;;14.40;12.90;;;36.70;45.10;;;;;;5048170;28;20233;-66
2022/09/26 09:26:00;;;;;;;16.40;13.15;;;37.60;43.00;;;;;;5046690;28;20293;-66
2022/09/26 09:28:38;;;;;;;14.63;12.50;;;39.00;40.30;;;;;;5047908;28;20202;-67
2022/09/26 09:31:11;;;;;;;12.90;11.63;;;40.60;37.80;;;;;;5045915;28;20217;-68
2022/09/26 09:33:42;;;;;;;13.63;12.35;;;42.00;35.70;;;;;;5046748;28;20193;-66
2022/09/26 09:36:13;;;;;;;14.52;12.63;;;42.60;33.80;;;;;;5046938;28;20202;-67
2022/09/26 09:38:45;;;;;;;14.30;12.20;;;42.80;33.50;;;;;;5047468;28;20216;-68
2022/09/26 09:41:16;;;;;;;14.10;12.60;;;43.40;32.30;;;;;;5046330;28;20676;-67
2022/09/26 09:43:46;;;;;;;12.80;11.60;;;44.00;31.70;;;;;;5044676;28;20716;-67
2022/09/26 09:46:21;;;;;;;12.70;11.50;;;44.90;30.60;;;;;;5043623;28;20198;-68
2022/09/26 09:48:50;;;;;;;12.45;11.25;;;45.60;29.90;;;;;;5048165;28;20201;-67
2022/09/26 09:51:31;;;;;;;11.43;10.25;;;45.90;29.40;;;;;;5051367;28;20232;-68
2022/09/26 09:54:21;;;;;;;12.23;10.00;;;46.20;28.80;;;;;;5043685;28;20315;-67
2022/09/26 09:56:58;;;;;;;11.00;9.80;;;46.50;28.50;;;;;;5046905;28;20205;-67
2022/09/26 09:59:59;;;;;;;10.27;9.25;;;46.80;28.00;;;;;;5036482;28;20204;-66
2022/09/26 10:02:35;;;;;;;11.35;10.25;;;47.40;27.50;;;;;;5038264;28;20646;-65
2022/09/26 10:05:21;;;;;;;10.38;9.38;;;47.50;27.30;;;;;;5040553;28;20213;-67
2022/09/26 10:07:48;;;;;;;11.50;10.27;;;47.50;27.00;;;;;;5046810;28;20231;-66
2022/09/26 10:10:20;;;;;;;11.05;9.90;;;47.40;27.00;;;;;;5050765;28;20255;-66
2022/09/26 10:12:48;;;;;;;11.65;9.50;;;47.50;26.90;;;;;;5048478;28;20680;-65
2022/09/26 10:15:21;;;;;;;11.38;9.70;;;47.80;27.00;;;;;;5051340;28;20209;-66
2022/09/26 10:18:05;;;;;;;11.80;10.60;;;48.20;26.70;;;;;;5049049;28;20205;-70
2022/09/26 10:20:38;;;;;;;10.43;9.52;;;48.70;26.10;;;;;;5049808;28;20218;-66
2022/09/26 10:23:25;;;;;;;10.88;9.88;;;48.70;26.10;;;;;;5047989;28;20677;-66
2022/09/26 10:26:02;;;;;;;10.43;9.30;;;48.70;26.10;;;;;;5046745;28;20213;-67
2022/09/26 10:28:34;;;;;;;11.13;10.13;;;48.30;26.00;;;;;;5049697;28;20201;-67
2022/09/26 10:31:06;;;;;;;8.75;7.95;;;48.10;25.90;;;;;;5049281;28;20193;-66
2022/09/26 10:33:36;;;;;;;12.23;8.93;;;46.80;25.90;;;;;;5045540;28;20202;-70
2022/09/26 10:36:10;;;;;;;12.25;9.00;;;44.60;26.80;;;;;;5047596;28;20643;-69
2022/09/26 10:41:40;;;;;;;8.88;8.05;;;39.40;30.00;;;;;;5048650;28;20274;-69
2022/09/26 10:44:21;;;;;;;10.25;8.38;;;36.60;32.40;;;;;;5046743;28;20213;-69
2022/09/26 10:46:50;;;;;;;8.77;7.97;;;34.80;35.00;;;;;;5047747;28;20202;-69
2022/09/26 10:49:23;;;;;;;8.40;7.15;;;34.90;36.50;;;;;;5046850;28;20209;-69
2022/09/26 10:51:59;;;;;;;8.52;6.93;;;36.40;35.40;;;;;;5050181;28;20202;-68
2022/09/26 10:54:40;;;;;;;7.80;6.85;;;38.60;33.40;;;;;;5047126;28;20190;-67
2022/09/26 10:57:17;;;;;;;8.07;6.38;;;40.60;30.80;;;;;;5040862;28;20193;-70
2022/09/26 10:59:46;;;;;;;7.95;6.53;;;41.90;29.10;;;;;;5043450;28;20275;-70
2022/09/26 11:02:18;;;;;;;7.05;6.30;;;42.70;28.70;;;;;;5050104;28;20217;-69
2022/09/26 11:07:37;;;;;;;5.93;5.40;;;44.70;27.40;;;;;;5047722;28;20207;-68
2022/09/26 11:10:09;;;;;;;7.03;6.40;;;45.80;26.60;;;;;;5045639;28;20206;-69
2022/09/26 11:12:38;;;;;;;6.43;5.80;;;46.80;26.20;;;;;;5041579;28;20205;-69
2022/09/26 11:15:08;;;;;;;6.40;5.65;;;47.50;25.80;;;;;;5048546;28;20283;-67
2022/09/26 11:17:44;;;;;;;8.43;6.75;;;47.90;25.60;;;;;;5044292;28;20201;-66
2022/09/26 11:20:24;;;;;;;8.82;6.32;;;48.40;25.00;;;;;;5047755;28;20251;-70
2022/09/26 11:23:01;;;;;;;7.65;6.07;;;48.80;24.50;;;;;;5049296;28;20773;-68
2022/09/26 11:25:32;;;;;;;21.08;12.45;;;49.20;24.50;;;;;;5040443;28;20245;-68
2022/09/26 11:28:04;;;;;;;11.43;8.97;;;49.10;24.10;;;;;;5041782;28;20460;-68
2022/09/26 11:30:37;;;;;;;19.10;10.27;;;49.30;23.80;;;;;;5045430;28;20953;-68
2022/09/26 11:33:11;;;;;;;6.68;5.55;;;49.30;24.40;;;;;;5049017;28;20201;-71
2022/09/26 11:35:48;;;;;;;11.10;6.57;;;49.30;23.80;;;;;;5045585;28;20437;-71
2022/09/26 11:38:37;;;;;;;7.30;5.97;;;48.70;24.10;;;;;;5055033;28;20328;-71
2022/09/26 11:41:35;;;;;;;7.00;5.55;;;48.50;24.20;;;;;;5053431;28;20208;-70
2022/09/26 11:44:33;;;;;;;5.30;4.80;;;48.50;24.30;;;;;;5051990;28;20233;-71
2022/09/26 11:47:21;;;;;;;5.78;5.28;;;48.90;24.00;;;;;;5041988;28;20662;-70
2022/09/26 11:50:03;;;;;;;6.07;5.50;;;49.00;23.60;;;;;;5047698;28;20194;-71
2022/09/26 11:52:55;;;;;;;6.20;5.55;;;48.70;23.50;;;;;;5052584;28;20662;-70
2022/09/26 11:55:31;;;;;;;5.70;5.18;;;48.20;24.00;;;;;;5057317;28;20208;-69
2022/09/26 11:58:09;;;;;;;5.18;4.65;;;47.80;24.20;;;;;;5052648;28;20225;-69
2022/09/26 12:00:50;;;;;;;5.47;4.95;;;47.00;24.50;;;;;;5051211;28;20543;-70
2022/09/26 12:03:46;;;;;;;5.55;5.05;;;46.20;24.70;;;;;;5048393;28;20208;-71
2022/09/26 12:06:28;;;;;;;5.40;4.72;;;45.40;25.10;;;;;;5051194;28;20292;-72
2022/09/26 12:09:19;;;;;;;9.02;5.28;;;44.80;25.50;;;;;;5048957;28;20220;-70
2022/09/26 12:11:53;;;;;;;6.55;5.78;;;44.20;25.90;;;;;;5052054;28;20267;-70
2022/09/26 12:14:37;;;;;;;7.00;5.75;;;44.20;26.00;;;;;;5053161;28;20726;-70
2022/09/26 12:17:13;;;;;;;5.25;4.75;;;44.40;26.20;;;;;;5052453;28;21005;-70
2022/09/26 12:19:47;;;;;;;5.97;4.90;;;43.90;26.00;;;;;;5052219;28;20624;-70
2022/09/26 12:22:29;;;;;;;5.95;5.25;;;42.40;26.80;;;;;;5053397;28;20648;-71
2022/09/26 12:25:19;;;;;;;7.32;5.03;;;41.10;27.70;;;;;;5053048;28;20249;-70
2022/09/26 12:27:54;;;;;;;5.90;5.30;;;39.90;28.40;;;;;;5050818;28;20240;-69
2022/09/26 12:30:26;;;;;;;6.05;5.45;;;39.20;28.70;;;;;;5064045;28;20209;-70
2022/09/26 12:33:10;;;;;;;5.97;5.20;;;38.70;29.30;;;;;;5051876;28;20208;-69
2022/09/26 12:35:47;;;;;;;6.45;5.85;;;38.50;29.40;;;;;;5043500;28;20211;-69
2022/09/26 12:38:34;;;;;;;6.45;5.30;;;37.80;29.80;;;;;;5051713;28;20201;-70
2022/09/26 12:41:13;;;;;;;6.00;5.40;;;36.40;30.90;;;;;;5051612;28;20209;-70
2022/09/26 12:43:56;;;;;;;6.20;5.60;;;35.10;32.00;;;;;;5045797;28;20205;-71
2022/09/26 12:46:42;;;;;;;6.55;5.95;;;33.70;33.40;;;;;;5050806;28;20213;-71
2022/09/26 12:49:32;;;;;;;6.38;5.78;;;32.50;35.40;;;;;;5047586;28;20540;-69
2022/09/26 12:52:06;;;;;;;7.50;6.22;;;31.90;36.50;;;;;;5043180;28;20217;-70
2022/09/26 12:54:56;;;;;;;7.85;6.10;;;31.60;37.10;;;;;;5044187;28;20229;-70
2022/09/26 12:57:31;;;;;;;10.00;7.03;;;31.40;37.70;;;;;;5052241;28;20620;-70
2022/09/26 13:00:11;;;;;;;13.00;6.55;;;31.10;38.20;;;;;;5047412;28;20617;-70
2022/09/26 13:03:08;;;;;;;8.30;7.40;;;30.70;39.00;;;;;;5049485;28;20289;-71
2022/09/26 13:05:55;;;;;;;8.85;7.95;;;30.10;40.10;;;;;;5047463;28;20217;-71
2022/09/26 13:08:30;;;;;;;8.07;6.55;;;29.20;41.50;;;;;;5051468;28;20529;-71
2022/09/26 13:11:11;;;;;;;7.72;6.65;;;28.60;42.40;;;;;;5044778;28;20206;-70
2022/09/26 13:14:07;;;;;;;9.32;7.32;;;27.70;43.50;;;;;;5048142;28;20210;-71
2022/09/26 13:16:44;;;;;;;7.95;6.43;;;27.00;45.10;;;;;;5049686;28;22253;-70